Time;durP1;ratioP1;P1;durP2;ratioP2;P2;SDS_P1;SDS_P2;PMS_P1;PMS_P2;Temp;Humidity;BMP_temperature;BMP_pressure;BME280_temperature;BME280_humidity;BME280_pressure;Samples;Min_cycle;Max_cycle;Signal;HPM_P1;HPM_P2
2022/11/01 00:02:08;;;;;;;;;25.25;20.25;;;;;18.36;55.69;98703.34;4972813;28;102135;-66
2022/11/01 00:04:35;;;;;;;;;22.75;19.25;;;;;18.34;55.41;98702.75;4971250;28;102524;-66
2022/11/01 00:07:02;;;;;;;;;18.00;17.25;;;;;18.35;55.54;98689.91;4979071;28;102269;-66
2022/11/01 00:09:29;;;;;;;;;18.00;16.25;;;;;18.34;55.32;98700.03;4974227;28;104045;-66
2022/11/01 00:11:58;;;;;;;;;20.75;20.00;;;;;18.34;55.27;98701.94;4973809;28;102156;-66
2022/11/01 00:14:25;;;;;;;;;27.50;21.00;;;;;18.32;55.71;98704.94;4967827;28;102358;-66
2022/11/01 00:16:51;;;;;;;;;20.75;17.75;;;;;18.31;55.23;98706.00;4973253;28;103378;-66
2022/11/01 00:19:19;;;;;;;;;22.50;18.75;;;;;18.30;55.25;98698.88;4969466;28;104129;-65
2022/11/01 00:21:45;;;;;;;;;24.25;20.50;;;;;18.30;55.29;98701.59;4972801;28;103101;-65
2022/11/01 00:24:12;;;;;;;;;22.00;18.50;;;;;18.30;55.73;98704.34;4974282;28;102220;-65
2022/11/01 00:26:39;;;;;;;;;20.50;20.25;;;;;18.30;55.66;98701.59;4973833;28;103377;-66
2022/11/01 00:29:07;;;;;;;;;20.00;18.50;;;;;18.30;55.39;98696.13;4975945;28;108728;-66
2022/11/01 00:31:34;;;;;;;;;23.75;21.75;;;;;18.29;54.99;98697.19;4972020;28;103336;-65
2022/11/01 00:34:04;;;;;;;;;20.50;18.00;;;;;18.31;55.20;98696.97;4989505;28;102406;-66
2022/11/01 00:36:35;;;;;;;;;20.25;19.25;;;;;18.28;55.04;98693.63;4972358;28;102533;-66
2022/11/01 00:39:03;;;;;;;;;24.25;19.75;;;;;18.29;55.51;98691.72;4972598;28;103877;-66
2022/11/01 00:41:30;;;;;;;;;23.75;19.25;;;;;18.29;54.89;98680.78;4968725;28;102054;-66
2022/11/01 00:43:57;;;;;;;;;23.00;20.00;;;;;18.27;55.58;98672.81;4971825;28;102599;-66
2022/11/01 00:46:24;;;;;;;;;17.25;16.50;;;;;18.27;55.36;98670.09;4974244;28;102224;-66
2022/11/01 00:48:51;;;;;;;;;21.75;19.50;;;;;18.27;55.20;98666.53;4971274;28;104019;-66
2022/11/01 00:51:17;;;;;;;;;25.50;20.50;;;;;18.27;55.39;98652.84;4970493;28;102361;-66
2022/11/01 00:53:44;;;;;;;;;18.25;16.75;;;;;18.25;55.08;98652.25;4973721;28;103294;-66
2022/11/01 00:56:11;;;;;;;;;25.00;19.25;;;;;18.25;55.51;98654.97;4977299;28;102336;-66
2022/11/01 00:58:38;;;;;;;;;21.75;19.25;;;;;18.24;55.31;98645.09;4972550;28;104035;-66
2022/11/01 01:01:05;;;;;;;;;20.00;18.25;;;;;18.22;55.63;98648.09;4973583;28;102392;-66
2022/11/01 01:03:32;;;;;;;;;19.75;16.25;;;;;18.23;55.21;98646.19;4971983;28;102855;-66
2022/11/01 01:05:59;;;;;;;;;19.00;17.25;;;;;18.23;55.29;98648.94;4974159;28;102382;-66
2022/11/01 01:08:27;;;;;;;;;22.25;18.50;;;;;18.23;55.35;98660.72;4973004;28;104034;-66
2022/11/01 01:10:54;;;;;;;;;18.75;17.75;;;;;18.23;55.07;98657.16;4971826;28;102377;-66
2022/11/01 01:13:21;;;;;;;;;21.25;18.00;;;;;18.22;55.34;98656.31;4970400;28;103476;-66
2022/11/01 01:15:48;;;;;;;;;23.50;19.00;;;;;18.23;55.08;98644.28;4973125;28;102379;-66
2022/11/01 01:18:15;;;;;;;;;25.75;21.75;;;;;18.23;55.01;98638.81;4971050;28;104162;-66
2022/11/01 01:20:42;;;;;;;;;22.00;19.50;;;;;18.22;55.56;98636.31;4973020;28;102311;-65
2022/11/01 01:23:09;;;;;;;;;20.00;18.75;;;;;18.22;55.20;98628.13;4973919;28;103502;-66
2022/11/01 01:25:40;;;;;;;;;19.00;17.00;;;;;18.21;55.57;98630.03;4977249;28;102157;-66
2022/11/01 01:28:08;;;;;;;;;22.75;17.25;;;;;18.20;55.15;98633.81;4959852;28;108943;-66
2022/11/01 01:30:39;;;;;;;;;22.00;20.25;;;;;18.20;55.21;98636.56;4970518;28;102128;-66
2022/11/01 01:33:06;;;;;;;;;20.75;18.25;;;;;18.19;55.44;98643.09;4972569;28;102367;-66
2022/11/01 01:35:33;;;;;;;;;23.75;22.50;;;;;18.17;54.95;98648.03;4976694;28;103460;-66
2022/11/01 01:38:00;;;;;;;;;21.50;17.00;;;;;18.16;55.69;98648.25;4970442;28;103969;-66
2022/11/01 01:40:27;;;;;;;;;24.75;20.00;;;;;18.17;55.41;98641.72;4974704;28;101992;-66
2022/11/01 01:42:54;;;;;;;;;20.00;18.50;;;;;18.17;55.43;98637.06;4970372;28;102364;-66
2022/11/01 01:45:31;;;;;;;;;24.00;22.25;;;;;18.17;55.06;98628.03;4974840;28;102309;-66
2022/11/01 01:48:21;;;;;;;;;21.00;19.50;;;;;18.17;55.64;98631.59;4963027;28;104019;-66
2022/11/01 01:50:58;;;;;;;;;20.75;15.75;;;;;18.16;55.25;98616.25;4948200;28;102033;-66
2022/11/01 01:53:41;;;;;;;;;27.75;21.25;;;;;18.17;55.38;98619.81;4960377;28;102156;-66
2022/11/01 01:56:18;;;;;;;;;21.50;20.75;;;;;18.18;54.97;98629.69;4965479;28;103049;-66
2022/11/01 01:58:54;;;;;;;;;18.75;17.25;;;;;18.17;55.06;98619.81;4965901;28;108335;-66
2022/11/01 02:01:21;;;;;;;;;22.50;21.25;;;;;18.17;55.33;98622.56;4967811;28;110778;-66
2022/11/01 02:03:48;;;;;;;;;22.25;19.00;;;;;18.15;55.34;98614.59;4969085;28;102477;-66
2022/11/01 02:06:20;;;;;;;;;22.75;19.50;;;;;18.15;54.91;98620.06;4963993;28;103024;-65
2022/11/01 02:09:06;;;;;;;;;23.25;19.50;;;;;18.14;55.07;98625.81;4970565;28;104034;-66
2022/11/01 02:11:56;;;;;;;;;22.50;18.50;;;;;18.13;55.19;98622.22;4946842;28;102444;-65
2022/11/01 02:14:46;;;;;;;;;20.00;19.00;;;;;18.12;55.63;98625.19;4964467;28;102225;-65
2022/11/01 02:17:44;;;;;;;;;23.00;18.50;;;;;18.12;55.72;98625.19;4966922;28;102071;-66
2022/11/01 02:20:57;;;;;;;;;23.50;19.25;;;;;18.12;54.97;98630.69;4970382;28;108774;-65
2022/11/01 02:24:08;;;;;;;;;20.75;18.75;;;;;18.11;55.08;98618.06;4971895;28;102340;-64
2022/11/01 02:27:13;;;;;;;;;22.50;19.00;;;;;18.11;54.93;98620.81;4971337;28;103890;-64
2022/11/01 02:30:13;;;;;;;;;16.00;16.00;;;;;18.11;55.02;98618.06;4963180;28;102203;-64
2022/11/01 02:32:57;;;;;;;;;17.00;17.00;;;;;18.11;54.83;98618.06;4963846;28;109218;-65
2022/11/01 02:35:58;;;;;;;;;21.50;18.25;;;;;18.11;55.19;98620.81;4968698;28;103058;-65
2022/11/01 02:38:34;;;;;;;;;16.25;16.00;;;;;18.10;55.14;98619.16;4969264;28;101941;-64
2022/11/01 02:41:13;;;;;;;;;24.00;19.00;;;;;18.09;55.40;98615.59;4977358;28;101971;-65
2022/11/01 02:44:01;;;;;;;;;17.50;16.50;;;;;18.09;55.10;98598.34;4975779;28;108788;-65
2022/11/01 02:49:22;;;;;;;;;23.50;17.75;;;;;18.07;55.06;98601.31;4975025;28;101976;-65
2022/11/01 02:51:51;;;;;;;;;20.50;16.25;;;;;18.07;55.30;98608.69;4975465;28;102206;-65
2022/11/01 02:54:31;;;;;;;;;22.50;19.50;;;;;18.06;55.07;98616.06;4977534;28;104013;-65
2022/11/01 02:57:05;;;;;;;;;14.50;14.00;;;;;18.06;55.43;98621.53;4968612;28;101969;-65
2022/11/01 02:59:43;;;;;;;;;22.00;18.75;;;;;18.06;55.22;98634.41;4979906;28;103211;-65
2022/11/01 03:02:38;;;;;;;;;16.25;15.50;;;;;18.06;55.53;98637.13;4975790;28;102271;-65
2022/11/01 03:05:21;;;;;;;;;18.25;17.25;;;;;18.06;54.97;98634.41;4972398;28;108877;-65
2022/11/01 03:07:55;;;;;;;;;24.25;17.50;;;;;18.06;54.99;98632.50;4974704;28;102280;-65
2022/11/01 03:10:34;;;;;;;;;17.00;16.50;;;;;18.04;55.08;98626.47;4972387;28;103293;-65
2022/11/01 03:13:20;;;;;;;;;23.50;19.25;;;;;18.06;54.80;98634.41;4973874;28;102582;-65
2022/11/01 03:15:59;;;;;;;;;18.75;17.25;;;;;18.05;54.77;98630.84;4971661;28;108623;-64
2022/11/01 03:18:34;;;;;;;;;19.75;17.00;;;;;18.04;55.29;98623.72;4970510;28;102318;-65
2022/11/01 03:21:17;;;;;;;;;21.00;18.75;;;;;18.05;55.65;98624.56;4973024;28;102276;-64
2022/11/01 03:23:50;;;;;;;;;22.25;16.50;;;;;18.05;55.34;98640.97;4974733;28;101939;-65
2022/11/01 03:26:24;;;;;;;;;21.25;17.00;;;;;18.04;55.26;98631.94;4972996;28;104198;-65
2022/11/01 03:29:01;;;;;;;;;18.25;15.50;;;;;18.03;54.76;98632.16;4972500;28;104706;-65
2022/11/01 03:31:31;;;;;;;;;16.75;14.75;;;;;18.02;54.95;98622.28;4978500;28;102454;-65
2022/11/01 03:34:02;;;;;;;;;18.75;16.00;;;;;18.02;55.18;98625.03;4974025;28;103567;-64
2022/11/01 03:36:37;;;;;;;;;17.50;16.00;;;;;18.03;55.03;98626.69;4973574;28;104008;-65
2022/11/01 03:39:14;;;;;;;;;19.75;16.75;;;;;18.02;55.27;98630.50;4971309;28;102043;-65
2022/11/01 03:41:47;;;;;;;;;16.75;15.75;;;;;18.02;54.86;98633.25;4977530;28;102416;-65
2022/11/01 03:44:14;;;;;;;;;16.75;15.25;;;;;18.02;54.91;98642.28;4971688;28;102312;-65
2022/11/01 03:46:41;;;;;;;;;17.50;15.50;;;;;18.04;55.30;98631.09;4973236;28;104157;-65
2022/11/01 03:49:08;;;;;;;;;19.25;14.50;;;;;18.04;55.37;98633.84;4977625;28;103281;-64
2022/11/01 03:51:35;;;;;;;;;21.25;16.75;;;;;18.01;55.17;98629.66;4976179;28;102387;-65
2022/11/01 03:54:05;;;;;;;;;20.00;15.50;;;;;18.01;54.92;98618.72;4977134;28;102400;-64
2022/11/01 03:56:32;;;;;;;;;15.25;14.00;;;;;18.01;54.96;98624.19;4980760;28;103989;-65
2022/11/01 03:58:59;;;;;;;;;17.50;16.00;;;;;17.99;55.67;98626.38;4969723;28;102006;-65
2022/11/01 04:01:26;;;;;;;;;13.00;13.00;;;;;17.99;55.08;98625.53;4974469;28;102152;-64
2022/11/01 04:03:53;;;;;;;;;15.00;13.00;;;;;17.99;55.17;98625.53;4980195;28;102049;-64
2022/11/01 04:06:20;;;;;;;;;16.00;15.00;;;;;17.98;54.80;98610.19;4969028;28;104413;-64
2022/11/01 04:08:47;;;;;;;;;13.75;13.00;;;;;17.98;55.20;98612.94;4974078;28;102313;-65
2022/11/01 04:11:13;;;;;;;;;16.00;13.50;;;;;18.00;55.03;98624.47;4971192;28;102619;-65
2022/11/01 04:13:42;;;;;;;;;16.75;14.50;;;;;17.99;55.39;98606.38;4978301;28;102389;-65
2022/11/01 04:21:43;;;;;;;;;16.50;13.75;;;;;17.97;55.46;98589.38;4970770;28;103457;-65
2022/11/01 04:24:10;;;;;;;;;21.00;16.00;;;;;17.98;55.27;98585.56;4977506;28;102195;-65
2022/11/01 04:26:37;;;;;;;;;15.00;13.75;;;;;17.97;54.78;98589.38;4972386;28;108996;-64
2022/11/01 04:29:04;;;;;;;;;13.50;13.25;;;;;17.98;55.41;98585.56;4973084;28;102520;-65
2022/11/01 04:31:35;;;;;;;;;14.75;13.75;;;;;17.96;55.00;98585.84;4970520;28;102427;-65
2022/11/01 04:34:04;;;;;;;;;15.50;12.50;;;;;17.96;54.94;98594.03;4970910;28;102273;-64
2022/11/01 04:36:31;;;;;;;;;15.75;12.50;;;;;17.96;55.08;98595.94;4974864;28;103345;-65
2022/11/01 04:38:58;;;;;;;;;15.25;13.25;;;;;17.96;55.28;98593.22;4976318;28;102171;-65
2022/11/01 04:41:27;;;;;;;;;14.50;13.25;;;;;17.96;55.11;98593.22;4972658;28;102196;-64
2022/11/01 04:43:56;;;;;;;;;15.00;13.75;;;;;17.93;55.53;98582.75;4976361;28;102142;-65
2022/11/01 04:46:24;;;;;;;;;14.50;13.00;;;;;17.95;55.15;98581.44;4971747;28;104022;-65
2022/11/01 04:48:50;;;;;;;;;13.00;12.50;;;;;17.93;55.71;98583.56;4973618;28;102025;-65
2022/11/01 04:51:17;;;;;;;;;13.75;12.75;;;;;17.94;55.44;98579.78;4974780;28;103066;-64
2022/11/01 04:53:44;;;;;;;;;12.00;10.25;;;;;17.93;54.59;98583.56;4972709;28;102235;-65
2022/11/01 04:56:12;;;;;;;;;12.50;11.75;;;;;17.93;55.02;98583.56;4976719;28;104078;-65
2022/11/01 04:58:39;;;;;;;;;13.75;12.50;;;;;17.93;54.72;98593.69;4970740;28;102438;-64
2022/11/01 05:01:13;;;;;;;;;10.25;9.75;;;;;17.94;55.39;98576.19;4970779;28;102247;-64
2022/11/01 05:03:41;;;;;;;;;14.25;12.00;;;;;17.93;54.95;98580.00;4974472;28;102218;-64
2022/11/01 05:06:08;;;;;;;;;14.00;12.50;;;;;17.95;54.96;98575.13;4954529;28;110860;-65
2022/11/01 05:08:35;;;;;;;;;14.00;12.75;;;;;17.93;55.44;98569.06;4966760;28;102398;-65
2022/11/01 05:11:02;;;;;;;;;13.00;12.00;;;;;17.93;55.05;98571.81;4972523;28;102369;-65
2022/11/01 05:13:29;;;;;;;;;9.75;9.75;;;;;17.92;54.94;98564.69;4974513;28;102234;-65
2022/11/01 05:15:56;;;;;;;;;13.50;12.50;;;;;17.92;55.23;98570.97;4970514;28;104014;-65
2022/11/01 05:18:43;;;;;;;;;16.50;13.50;;;;;17.91;54.98;98563.03;4968785;28;104969;-64
2022/11/01 05:21:10;;;;;;;;;13.00;11.33;;;;;17.90;55.23;98575.03;4975763;28;103544;-64
2022/11/01 05:23:37;;;;;;;;;14.00;13.00;;;;;17.90;55.04;98575.88;4975445;28;102152;-64
2022/11/01 05:26:04;;;;;;;;;11.50;11.00;;;;;17.91;55.13;98576.72;4973927;28;104050;-65
2022/11/01 05:28:32;;;;;;;;;12.00;12.00;;;;;17.91;55.01;98568.50;4972876;28;102139;-64
2022/11/01 05:30:59;;;;;;;;;11.75;10.75;;;;;17.91;55.60;98573.97;4973189;28;103397;-64
2022/11/01 05:33:26;;;;;;;;;12.00;10.00;;;;;17.91;55.02;98571.25;4972968;28;102307;-65
2022/11/01 05:35:53;;;;;;;;;10.75;10.75;;;;;17.90;55.47;98570.41;4972286;28;104166;-65
2022/11/01 05:38:20;;;;;;;;;10.00;9.00;;;;;17.90;55.14;98575.03;4972471;28;102591;-65
2022/11/01 05:40:47;;;;;;;;;12.00;10.00;;;;;17.90;55.07;98572.31;4968000;28;102242;-64
2022/11/01 05:43:14;;;;;;;;;10.00;10.00;;;;;17.91;55.28;98579.44;4967433;28;102057;-63
2022/11/01 05:45:41;;;;;;;;;9.50;9.50;;;;;17.90;54.58;98573.13;4972492;28;104061;-65
2022/11/01 05:48:08;;;;;;;;;12.50;10.25;;;;;17.91;55.05;98573.97;4975071;28;102445;-65
2022/11/01 05:50:35;;;;;;;;;11.25;11.00;;;;;17.90;54.73;98562.19;4973416;28;102344;-65
2022/11/01 05:53:06;;;;;;;;;13.00;11.00;;;;;17.89;55.60;98566.00;4974153;28;102094;-65
2022/11/01 05:55:33;;;;;;;;;11.00;10.00;;;;;17.90;55.10;98564.09;4972196;28;103967;-64
2022/11/01 05:58:00;;;;;;;;;9.33;9.33;;;;;17.88;55.51;98569.00;4972185;28;102311;-65
2022/11/01 06:00:27;;;;;;;;;11.50;10.75;;;;;17.88;55.46;98566.28;4971104;28;101870;-64
2022/11/01 06:02:57;;;;;;;;;12.25;10.50;;;;;17.87;55.19;98567.34;4973893;28;104329;-65
2022/11/01 06:05:25;;;;;;;;;11.67;10.00;;;;;17.87;55.25;98567.34;4959550;28;104208;-65
2022/11/01 06:07:52;;;;;;;;;13.25;12.25;;;;;17.88;55.06;98569.00;4968892;28;103054;-65
2022/11/01 06:10:19;;;;;;;;;13.00;10.75;;;;;17.87;54.70;98570.09;4968703;28;102145;-65
2022/11/01 06:12:46;;;;;;;;;8.67;8.00;;;;;17.86;55.43;98566.50;4972823;28;103217;-65
2022/11/01 06:15:13;;;;;;;;;14.67;11.00;;;;;17.87;55.41;98581.03;4968677;28;110684;-64
2022/11/01 06:17:40;;;;;;;;;9.00;9.00;;;;;17.85;54.69;98578.53;4970477;28;102291;-65
2022/11/01 06:20:07;;;;;;;;;9.67;8.33;;;;;17.84;54.82;98574.97;4973479;28;102206;-65
2022/11/01 06:22:37;;;;;;;;;8.33;8.33;;;;;17.84;55.11;98574.97;4975876;28;103861;-65
2022/11/01 06:25:05;;;;;;;;;8.00;7.75;;;;;17.87;55.30;98575.56;4976569;28;103939;-67
2022/11/01 06:27:32;;;;;;;;;12.00;10.00;;;;;17.84;55.12;98580.44;4976070;28;102700;-66
2022/11/01 06:29:59;;;;;;;;;9.67;9.00;;;;;17.86;54.80;98576.63;4978669;28;102906;-66
2022/11/01 06:32:26;;;;;;;;;10.00;9.25;;;;;17.86;55.47;98576.63;4975937;28;102667;-67
2022/11/01 06:34:53;;;;;;;;;12.33;9.00;;;;;17.84;55.44;98574.13;4973254;28;104157;-67
2022/11/01 06:37:20;;;;;;;;;7.67;7.00;;;;;17.83;55.73;98578.75;4978363;28;102348;-66
2022/11/01 06:39:47;;;;;;;;;10.00;10.00;;;;;17.82;55.69;98582.59;4976349;28;102504;-67
2022/11/01 06:42:13;;;;;;;;;10.00;10.00;;;;;17.81;55.39;98575.47;4981395;28;103032;-67
2022/11/01 06:44:40;;;;;;;;;10.00;10.00;;;;;17.80;55.79;98568.31;4971108;28;103998;-67
2022/11/01 06:47:07;;;;;;;;;8.00;8.00;;;;;17.81;55.69;98574.63;4970414;28;103840;-67
2022/11/01 06:49:34;;;;;;;;;3.00;3.00;;;;;17.82;55.70;98570.81;4973974;28;102482;-66
2022/11/01 06:52:02;;;;;;;;;6.67;6.67;;;;;17.81;55.34;98569.16;4977968;28;102474;-67
2022/11/01 06:54:29;;;;;;;;;8.67;8.67;;;;;17.81;55.86;98575.47;4973374;28;104473;-67
2022/11/01 06:56:56;;;;;;;;;6.67;6.33;;;;;17.81;55.32;98566.44;4976474;28;102651;-67
2022/11/01 06:59:23;;;;;;;;;8.00;6.00;;;;;17.81;55.05;98575.47;4976167;28;102469;-66
2022/11/01 07:01:53;;;;;;;;;9.33;7.00;;;;;17.79;55.32;98582.25;4977906;28;102496;-67
2022/11/01 07:04:21;;;;;;;;;6.33;5.33;;;;;17.80;55.43;98595.69;4971970;28;104062;-66
2022/11/01 07:06:48;;;;;;;;;8.00;7.00;;;;;17.80;55.58;98594.84;4974508;28;102642;-65
2022/11/01 07:09:15;;;;;;;;;8.00;8.00;;;;;17.80;55.23;98590.22;4977621;28;102563;-66
2022/11/01 07:11:42;;;;;;;;;9.00;7.67;;;;;17.79;55.53;98569.41;4966999;28;102467;-67
2022/11/01 07:14:09;;;;;;;;;7.00;6.00;;;;;17.81;55.46;98574.63;4952243;28;104060;-65
2022/11/01 07:16:37;;;;;;;;;7.33;7.00;;;;;17.81;55.05;98571.91;4967898;28;102067;-67
2022/11/01 07:19:04;;;;;;;;;8.00;7.00;;;;;17.79;55.84;98571.31;4972861;28;102660;-67
2022/11/01 07:21:31;;;;;;;;;7.33;6.67;;;;;17.80;55.07;98572.97;4976139;28;102331;-67
2022/11/01 07:23:58;;;;;;;;;6.00;6.00;;;;;17.79;55.61;98574.88;4973941;28;104076;-68
2022/11/01 07:26:25;;;;;;;;;7.00;6.00;;;;;17.79;55.25;98569.41;4971523;28;102164;-66
2022/11/01 07:28:52;;;;;;;;;7.00;7.00;;;;;17.80;55.29;98573.78;4974778;28;110952;-67
2022/11/01 07:31:19;;;;;;;;;6.33;6.33;;;;;17.80;55.35;98590.22;4976261;28;102247;-66
2022/11/01 07:33:46;;;;;;;;;7.00;6.00;;;;;17.80;55.61;98584.75;4972151;28;104057;-66
2022/11/01 07:36:13;;;;;;;;;7.67;6.33;;;;;17.80;55.32;98575.69;4978584;28;101956;-66
2022/11/01 07:38:40;;;;;;;;;7.00;6.33;;;;;17.80;55.75;98576.53;4971092;28;101989;-67
2022/11/01 07:41:07;;;;;;;;;7.33;6.00;;;;;17.81;55.47;98580.94;4973201;28;101986;-66
2022/11/01 07:43:34;;;;;;;;;7.67;6.00;;;;;17.80;55.49;98579.28;4970076;28;104014;-66
2022/11/01 07:46:06;;;;;;;;;4.67;4.67;;;;;17.80;55.85;98573.78;4975364;28;102056;-67
2022/11/01 07:48:35;;;;;;;;;8.00;7.67;;;;;17.80;55.23;98573.78;4980546;28;102443;-66
2022/11/01 07:51:04;;;;;;;;;7.25;6.75;;;;;17.79;55.58;98572.13;4979332;28;102054;-67
2022/11/01 07:53:32;;;;;;;;;6.00;5.33;;;;;17.80;55.34;98578.44;4967789;28;104285;-67
2022/11/01 07:56:00;;;;;;;;;5.67;5.33;;;;;17.79;55.85;98563.94;4974205;28;102033;-66
2022/11/01 07:58:28;;;;;;;;;6.00;5.00;;;;;17.80;55.94;98564.75;4978939;28;102273;-67
2022/11/01 08:00:55;;;;;;;;;7.00;6.00;;;;;17.79;55.63;98566.66;4972056;28;102405;-67
2022/11/01 08:03:22;;;;;;;;;5.00;5.00;;;;;17.80;55.27;98568.31;4970558;28;104086;-67
2022/11/01 08:05:49;;;;;;;;;7.00;6.00;;;;;17.80;55.59;98562.84;4977261;28;102047;-65
2022/11/01 08:08:17;;;;;;;;;5.33;4.67;;;;;17.80;55.83;98565.59;4976932;28;101988;-67
2022/11/01 08:10:45;;;;;;;;;8.67;7.00;;;;;17.81;55.94;98559.06;4976459;28;102345;-66
2022/11/01 08:13:14;;;;;;;;;6.33;6.33;;;;;17.80;55.30;98554.66;4973806;28;103652;-66
2022/11/01 08:15:42;;;;;;;;;8.00;6.00;;;;;17.81;55.38;98556.31;4988973;28;102452;-66
2022/11/01 08:18:09;;;;;;;;;5.67;5.33;;;;;17.81;55.37;98561.78;4969221;28;103141;-66
2022/11/01 08:20:36;;;;;;;;;7.00;7.00;;;;;17.83;55.09;98564.28;4981794;28;101925;-66
2022/11/01 08:23:04;;;;;;;;;7.67;7.00;;;;;17.84;55.89;98564.00;4970489;28;104009;-66
2022/11/01 08:25:33;;;;;;;;;6.67;6.67;;;;;17.84;55.81;98564.00;4968963;28;102256;-66
2022/11/01 08:28:02;;;;;;;;;6.67;6.33;;;;;17.86;55.44;98577.44;4987914;28;102270;-66
2022/11/01 08:30:30;;;;;;;;;5.00;5.00;;;;;17.84;55.83;98580.44;4971835;28;102433;-63
2022/11/01 08:33:01;;;;;;;;;8.33;6.33;;;;;17.86;55.69;98579.34;4969688;28;103762;-63
2022/11/01 08:35:29;;;;;;;;;5.00;5.00;;;;;17.85;55.72;98573.06;4968545;28;102005;-64
2022/11/01 08:38:00;;;;;;;;;8.33;6.00;;;;;17.85;55.67;98573.06;4985299;28;102246;-63
2022/11/01 08:40:27;;;;;;;;;6.00;6.00;;;;;17.86;55.17;98571.16;4968884;28;103336;-65
2022/11/01 08:42:54;;;;;;;;;4.33;3.67;;;;;17.86;55.24;98571.16;4968527;28;103971;-63
2022/11/01 08:45:22;;;;;;;;;5.67;5.00;;;;;17.88;55.75;98567.06;4985115;28;102061;-63
2022/11/01 08:47:49;;;;;;;;;6.67;6.67;;;;;17.88;55.16;98574.47;4985051;28;102343;-63
2022/11/01 08:50:17;;;;;;;;;6.00;5.33;;;;;17.88;55.43;98574.47;4991341;28;102338;-67
2022/11/01 08:52:44;;;;;;;;;7.00;6.00;;;;;17.86;55.29;98561.03;4969261;28;109394;-65
2022/11/01 08:55:11;;;;;;;;;6.00;6.00;;;;;17.87;55.56;98561.88;4968155;28;102563;-65
2022/11/01 08:57:38;;;;;;;;;6.00;5.00;;;;;17.91;55.12;98569.34;4981516;28;102471;-65
2022/11/01 09:00:06;;;;;;;;;6.00;6.00;;;;;17.91;55.89;98558.41;4970193;28;102320;-65
2022/11/01 09:02:33;;;;;;;;;6.67;6.33;;;;;17.92;55.41;98561.97;4968259;27;104047;-62
2022/11/01 09:05:05;;;;;;;;;5.00;5.00;;;;;17.89;56.20;98562.44;4973903;28;102434;-62
2022/11/01 09:07:36;;;;;;;;;3.67;3.00;;;;;17.97;55.81;98568.31;4971920;28;102217;-62
2022/11/01 09:10:04;;;;;;;;;4.67;4.67;;;;;17.97;55.60;98575.69;4973327;28;102103;-70
2022/11/01 09:12:31;;;;;;;;;5.00;5.00;;;;;17.99;55.50;98576.28;4972352;28;104074;-63
2022/11/01 09:14:58;;;;;;;;;6.00;5.33;;;;;17.96;55.74;98571.31;4974961;28;101994;-60
2022/11/01 09:17:24;;;;;;;;;3.33;3.00;;;;;17.96;56.34;98577.63;4973664;28;102401;-65
2022/11/01 09:19:51;;;;;;;;;4.00;4.00;;;;;17.97;56.50;98572.97;4973369;28;102224;-65
2022/11/01 09:22:18;;;;;;;;;5.33;4.33;;;;;17.97;55.90;98562.00;4971595;28;104033;-65
2022/11/01 09:24:45;;;;;;;;;5.33;5.00;;;;;17.98;56.96;98569.16;4973907;28;102645;-62
2022/11/01 09:27:12;;;;;;;;;2.67;2.00;;;;;17.96;56.16;98568.59;4971500;28;102157;-61
2022/11/01 09:29:39;;;;;;;;;3.00;3.00;;;;;17.98;56.18;98578.19;4974875;28;104469;-62
2022/11/01 09:32:06;;;;;;;;;4.67;4.00;;;;;17.97;55.50;98571.06;4973693;28;103975;-63
2022/11/01 10:08:05;;;;;;;;;15.00;13.00;;;;;15.32;60.28;98592.00;5016105;27;102125;-73
2022/11/01 10:10:38;;;;;;;;;12.50;12.50;;;;;15.04;62.07;98598.06;4997780;28;102832;-73
2022/11/01 10:13:34;;;;;;;;;14.00;12.50;;;;;15.08;62.44;98588.34;4995461;27;103342;-74
2022/11/01 10:16:29;;;;;;;;;3.25;3.00;;;;;15.15;61.56;98580.94;4994640;28;102417;-72
2022/11/01 10:19:17;;;;;;;;;1.00;1.00;;;;;15.30;61.36;98583.25;4995988;27;103041;-73
2022/11/01 10:21:51;;;;;;;;;1.00;1.00;;;;;15.31;62.09;98586.81;5003936;28;102192;-73
2022/11/01 10:24:34;;;;;;;;;0.67;0.00;;;;;15.31;61.46;98576.72;4988351;28;108901;-73
2022/11/01 10:27:21;;;;;;;;;1.00;1.00;;;;;15.57;60.30;98572.81;5009550;27;103588;-79
2022/11/01 10:30:18;;;;;;;;;0.00;0.00;;;;;15.65;60.70;98558.84;5006654;28;102255;-71
2022/11/01 10:33:40;;;;;;;;;0.00;0.00;;;;;15.68;59.50;98563.81;4993198;28;102529;-72
2022/11/01 10:36:13;;;;;;;;;0.00;0.00;;;;;15.61;58.94;98579.47;4891727;28;108630;-74
2022/11/01 10:38:45;;;;;;;;;0.00;0.00;;;;;15.48;60.09;98571.47;4998249;28;102233;-73
2022/11/01 10:41:44;;;;;;;;;0.00;0.00;;;;;15.31;60.97;98568.56;4984067;28;102306;-71
2022/11/01 10:44:25;;;;;;;;;0.00;0.00;;;;;15.30;60.83;98560.63;5002333;28;102324;-71
2022/11/01 10:46:54;;;;;;;;;0.00;0.00;;;;;15.23;61.54;98559.88;4998421;28;108578;-72
2022/11/01 10:49:28;;;;;;;;;0.00;0.00;;;;;15.34;61.44;98572.72;4994227;28;102130;-72
2022/11/01 10:52:18;;;;;;;;;0.00;0.00;;;;;15.34;61.12;98562.66;5007016;28;102182;-72
2022/11/01 10:54:46;;;;;;;;;0.00;0.00;;;;;15.36;60.95;98567.84;4993699;28;103596;-72
2022/11/01 10:57:28;;;;;;;;;0.00;0.00;;;;;15.38;60.63;98563.00;4995198;28;103994;-73
2022/11/01 11:00:00;;;;;;;;;0.00;0.00;;;;;15.29;61.15;98564.41;4985904;28;102427;-70
2022/11/01 11:02:33;;;;;;;;;0.00;0.00;;;;;15.26;61.00;98568.44;4982888;28;102528;-71
2022/11/01 11:05:00;;;;;;;;;0.00;0.00;;;;;15.35;61.92;98560.78;4964251;28;102375;-72
2022/11/01 11:07:31;;;;;;;;;0.00;0.00;;;;;15.45;61.23;98563.72;4953842;28;104061;-72
2022/11/01 11:10:01;;;;;;;;;0.00;0.00;;;;;15.51;61.44;98551.94;4960772;28;102091;-71
2022/11/01 11:12:30;;;;;;;;;0.00;0.00;;;;;15.63;60.20;98559.06;4954346;28;102236;-72
2022/11/01 11:15:02;;;;;;;;;0.00;0.00;;;;;15.61;59.81;98558.50;4960261;28;102474;-70
2022/11/01 11:17:29;;;;;;;;;0.00;0.00;;;;;15.72;60.58;98570.47;4945160;28;104519;-71
2022/11/01 11:20:04;;;;;;;;;0.00;0.00;;;;;15.78;60.32;98561.34;4954727;28;102438;-71
2022/11/01 11:22:38;;;;;;;;;0.00;0.00;;;;;15.77;60.03;98567.03;4952653;28;102724;-72
2022/11/01 11:25:13;;;;;;;;;0.00;0.00;;;;;15.84;59.82;98567.78;4932837;28;103955;-71
2022/11/01 11:27:47;;;;;;;;;0.00;0.00;;;;;15.88;59.71;98567.06;4950739;28;104019;-72
2022/11/01 11:30:34;;;;;;;;;0.00;0.00;;;;;15.88;59.54;98577.97;4934080;28;102460;-73
2022/11/01 11:33:02;;;;;;;;;0.00;0.00;;;;;15.95;59.84;98562.31;4947617;28;102522;-71
2022/11/01 11:35:32;;;;;;;;;0.00;0.00;;;;;16.06;59.53;98560.66;4946943;28;103557;-72
2022/11/01 11:38:05;;;;;;;;;0.00;0.00;;;;;15.99;58.92;98563.50;4942194;28;103857;-72
2022/11/01 11:40:39;;;;;;;;;0.00;0.00;;;;;15.70;60.80;98572.59;4944585;28;102271;-73
2022/11/01 11:43:29;;;;;;;;;0.00;0.00;;;;;15.68;60.62;98568.44;4940272;28;102129;-71
2022/11/01 11:46:13;;;;;;;;;0.00;0.00;;;;;15.77;60.23;98567.03;4947210;28;102384;-72
2022/11/01 11:48:51;;;;;;;;;0.00;0.00;;;;;15.82;60.30;98561.72;4943933;28;104113;-73
2022/11/01 11:51:20;;;;;;;;;0.00;0.00;;;;;15.86;60.10;98566.44;4939212;28;102250;-72
2022/11/01 11:54:27;;;;;;;;;0.00;0.00;;;;;15.95;59.11;98572.38;4938355;28;102185;-71
2022/11/01 11:57:10;;;;;;;;;0.00;0.00;;;;;15.92;59.46;98567.41;4943800;28;102451;-72
2022/11/01 11:59:39;;;;;;;;;0.00;0.00;;;;;15.93;59.77;98574.53;4954535;28;104215;-72
2022/11/01 12:02:18;;;;;;;;;0.00;0.00;;;;;15.84;59.44;98568.59;4945839;28;102291;-73
2022/11/01 12:04:57;;;;;;;;;0.00;0.00;;;;;15.86;59.24;98574.63;4953551;28;102327;-69
2022/11/01 12:07:33;;;;;;;;;0.00;0.00;;;;;15.80;59.79;98582.94;4948813;28;101982;-73
2022/11/01 12:10:05;;;;;;;;;15.50;14.25;;;;;15.93;58.79;98583.56;4948286;28;104153;-71
2022/11/01 12:12:41;;;;;;;;;10.75;8.50;;;;;15.82;59.60;98576.16;4955502;28;102171;-71
2022/11/01 12:15:37;;;;;;;;;12.75;12.75;;;;;15.86;59.94;98581.97;4942025;28;102174;-72
2022/11/01 12:18:15;;;;;;;;;15.75;13.25;;;;;15.72;60.01;98575.06;4937367;28;103228;-73
2022/11/01 12:20:48;;;;;;;;;15.50;14.25;;;;;15.49;59.97;98576.66;4952973;28;104046;-72